Nearby METAR Reports

 

KHFD - Hartford/Brainar, Connecticut, USA
Distance from station: ESE 5mi, 8km
Updated: Fri, 21-Sep-2018 6:53am EDT
Overcast
Overcast
 Wind from SE
Wind: SE 6 mph , 9 km/h
Temperature: 63°F , 17°C
Dew Point: 57°F , 14°C
Humidity: 83%
Barometer: 30.27 inHg , 1025.1 hPa
Clouds: Overcast
Visibility: 10 miles , 16 km
Cloud details: Partly cloudy 1800 ft
Mostly cloudy 3300 ft
Overcast 6000 ft
2018/09/21 10:53 KHFD 211053Z 14005KT 10SM SCT018 BKN033 OVC060 17/14 A3027 RMK AO2 SLP250 T01670139
KBDL - Windsor Locks, Connecticut, USA
Distance from station: NNE 12mi, 20km
Updated: Fri, 21-Sep-2018 6:51am EDT
Overcast
Overcast
 Wind from SSE
Wind: SSE 8 mph , 13 km/h
Temperature: 61°F , 16°C
Dew Point: 57°F , 14°C
Humidity: 88%
Barometer: 30.27 inHg , 1025.1 hPa
Clouds: Overcast
Visibility: 10 miles , 16 km
Cloud details: Mostly cloudy 1700 ft
Overcast 2700 ft
2018/09/21 10:51 KBDL 211051Z 15007KT 10SM BKN017 OVC027 16/14 A3027 RMK AO2 SLP251 T01610139 $
 
KMMK - Meriden, Connecticut, USA
Distance from station: SSW 18mi, 28km
Updated: Fri, 21-Sep-2018 6:53am EDT
Overcast
Overcast
 Wind from calm
Wind: Calm
Temperature: 63°F , 17°C
Dew Point: 61°F , 16°C
Humidity: 94%
Barometer: 30.27 inHg , 1025.1 hPa
Clouds: Overcast
Visibility: 10 miles , 16 km
Cloud details: Partly cloudy 2200 ft
Overcast 2800 ft
2018/09/21 10:53 KMMK 211053Z AUTO 00000KT 10SM SCT022 OVC028 17/16 A3027 RMK AO2 SLP250 T01720156
KBAF - Westfield, Massachusetts, USA
Distance from station: N 28mi, 45km
Updated: Fri, 21-Sep-2018 6:53am EDT
Overcast
Overcast
 Wind from S
Wind: S 5 mph , 7 km/h
Temperature: 61°F , 16°C
Dew Point: 57°F , 14°C
Humidity: 88%
Barometer: 30.27 inHg , 1025.1 hPa
Clouds: Overcast
Visibility: 10 miles , 16 km
Cloud details: Overcast 1700 ft
2018/09/21 10:53 KBAF 211053Z 17004KT 10SM OVC017 16/14 A3027 RMK AO2 SLP251 T01610144
 
KIJD - Willimantic, Connecticut, USA
Distance from station: E 29mi, 46km
Updated: Fri, 21-Sep-2018 7:11am EDT
Overcast
Overcast
 Wind from calm
Wind: Calm
Temperature: 59°F , 15°C
Dew Point: 57°F , 14°C
Humidity: 94%
Barometer: 30.30 inHg , 1026.1 hPa
Clouds: Overcast
Visibility: 10 miles , 16 km
Cloud details: Overcast 3100 ft
2018/09/21 11:11 KIJD 211111Z AUTO 00000KT 10SM OVC031 15/14 A3030 RMK AO2 T01500139
KOXC - Oxford/Waterbury, Connecticut, USA
Distance from station: SW 29mi, 46km
Updated: Fri, 21-Sep-2018 7:01am EDT
Overcast
Overcast
 Wind from SSE
Wind: SSE 8 mph , 13 km/h
Temperature: 63°F , 17°C
Dew Point: 61°F , 16°C
Humidity: 94%
Barometer: 30.28 inHg , 1025.4 hPa
Clouds: Overcast
Visibility: 10 miles , 16 km
Cloud details: Partly cloudy 1400 ft
Mostly cloudy 2300 ft
Overcast 3300 ft
2018/09/21 11:01 KOXC 211101Z 16007KT 10SM SCT014 BKN023 OVC033 17/16 A3028 RMK AO2
 
KSNC - Chester, Connecticut, USA
Distance from station: SSE 29mi, 47km
Updated: Fri, 21-Sep-2018 7:35am EDT
Overcast
Overcast
 Wind from SE
Wind: SE 6 mph , 9 km/h
Temperature: 63°F , 17°C
Dew Point: 59°F , 15°C
Humidity: 88%
Barometer: 30.29 inHg , 1025.7 hPa
Clouds: Overcast
Visibility: 10 miles , 16 km
Cloud details: Overcast 1600 ft
2018/09/21 11:35 KSNC 211135Z AUTO 14005KT 10SM OVC016 17/15 A3029 RMK AO2
KCEF - Chicopee/Westove, Massachusetts, USA
Distance from station: NNE 32mi, 52km
Updated: Fri, 21-Sep-2018 6:56am EDT
Overcast
Overcast
 Wind from S
Wind: S 3 mph , 6 km/h
Temperature: 61°F , 16°C
Dew Point: 55°F , 13°C
Humidity: 83%
Barometer: 30.26 inHg , 1024.7 hPa
Clouds: Overcast
Visibility: 10 miles , 16 km
Cloud details: Overcast 2200 ft
2018/09/21 10:56 KCEF 211056Z AUTO 17003KT 10SM OVC022 16/13 A3026 RMK AO2 CIG 021 RWY05 SLP253 T01590130
 
KHVN - New Haven/Tweed, Connecticut, USA
Distance from station: S 35mi, 56km
Updated: Fri, 21-Sep-2018 6:53am EDT
Overcast
Overcast
 Wind from S
Wind: S 12 mph , 19 km/h
Temperature: 66°F , 19°C
Dew Point: 61°F , 16°C
Humidity: 83%
Barometer: 30.28 inHg , 1025.4 hPa
Clouds: Overcast
Visibility: 10 miles , 16 km
Cloud details: Mostly cloudy 2200 ft
Mostly cloudy 4600 ft
Overcast 6000 ft
2018/09/21 10:53 KHVN 211053Z 17010KT 10SM BKN022 BKN046 OVC060 19/16 A3028 RMK AO2 SLP252 T01940156
KBDR - Bridgeport, Connecticut, USA
Distance from station: SSW 46mi, 74km
Updated: Fri, 21-Sep-2018 6:52am EDT
Overcast
Overcast
 Wind from S
Wind: S 10 mph , 17 km/h
Temperature: 66°F , 19°C
Dew Point: 59°F , 15°C
Humidity: 78%
Barometer: 30.27 inHg , 1025.1 hPa
Clouds: Overcast
Visibility: 10 miles , 16 km
Cloud details: Few Clouds 1900 ft
Partly cloudy 2700 ft
Overcast 6000 ft
2018/09/21 10:52 KBDR 211052Z 17009KT 10SM FEW019 SCT027 OVC060 19/15 A3027 RMK AO2 SLP250 T01940150
 
KGON - Groton/New Londo, Connecticut, USA
Distance from station: SE 46mi, 75km
Updated: Fri, 21-Sep-2018 6:56am EDT
Partly cloudy
Partly cloudy
 Wind from ESE
Wind: ESE 8 mph , 13 km/h
Temperature: 63°F , 17°C
Dew Point: 55°F , 13°C
Humidity: 77%
Barometer: 30.29 inHg , 1025.7 hPa
Clouds: Partly cloudy
Visibility: 10 miles , 16 km
Cloud details: Few Clouds 2200 ft
Partly cloudy 6000 ft
2018/09/21 10:56 KGON 211056Z AUTO 11007KT 10SM FEW022 SCT060 17/13 A3029 RMK AO2 SLP257 T01720133
KDXR - Danbury, Connecticut, USA
Distance from station: SW 47mi, 76km
Updated: Fri, 21-Sep-2018 6:53am EDT
Overcast
Overcast
 Wind from varies
Wind: varies 3 mph , 6 km/h
Temperature: 63°F , 17°C
Dew Point: 61°F , 16°C
Humidity: 94%
Barometer: 30.27 inHg , 1025.1 hPa
Clouds: Overcast
Visibility: 10 miles , 16 km
Cloud details: Overcast 2300 ft
2018/09/21 10:53 KDXR 211053Z VRB03KT 10SM OVC023 17/16 A3027 RMK AO2 SLP249 T01720156
 
KPSF - Pittsfield, Massachusetts, USA
Distance from station: NNW 54mi, 87km
Updated: Fri, 21-Sep-2018 7:12am EDT
Mist, Overcast
Mist, Overcast
 Wind from ESE
Wind: ESE 7 mph , 11 km/h
Temperature: 61°F , 16°C
Dew Point: 57°F , 14°C
Humidity: 88%
Barometer: 30.23 inHg , 1023.7 hPa
Summary: Mist
Clouds: Overcast
Visibility: 1 1/2 miles , 2.4 km
Cloud details: Mostly cloudy 600 ft
Overcast 1300 ft
2018/09/21 11:12 KPSF 211112Z AUTO 12006KT 1 1/2SM BR BKN006 OVC013 16/14 A3023 RMK AO2 RAE1055 P0001 T01560139
KWST - Westerly, Rhode Island, USA
Distance from station: ESE 56mi, 91km
Updated: Fri, 21-Sep-2018 6:53am EDT
Partly cloudy
Partly cloudy
 Wind from E
Wind: E 3 mph , 6 km/h
Temperature: 59°F , 15°C
Dew Point: 57°F , 14°C
Humidity: 94%
Barometer: 30.30 inHg , 1026.1 hPa
Clouds: Partly cloudy
Visibility: 10 miles , 16 km
Cloud details: Partly cloudy 4100 ft
2018/09/21 10:53 KWST 211053Z AUTO 08003KT 10SM SCT041 15/14 A3030 RMK AO2 SLP260 T01500144
 
KORH - Worcester, Massachusetts, USA
Distance from station: NE 57mi, 92km
Updated: Fri, 21-Sep-2018 6:54am EDT
Overcast
Overcast
 Wind from SSE
Wind: SSE 8 mph , 13 km/h
Temperature: 55°F , 13°C
Dew Point: 54°F , 12°C
Humidity: 94%
Barometer: 30.30 inHg , 1026.1 hPa
Clouds: Overcast
Visibility: 10 miles , 16 km
Cloud details: Overcast 3200 ft
2018/09/21 10:54 KORH 211054Z AUTO 15007KT 10SM OVC032 13/12 A3030 RMK AO2 SLP263 T01330117
KPOU - Poughkeepsie, New York, USA
Distance from station: W 60mi, 96km
Updated: Fri, 21-Sep-2018 6:53am EDT
Overcast
Overcast
 Wind from S
Wind: S 5 mph , 7 km/h
Temperature: 64°F , 18°C
Dew Point: 59°F , 15°C
Humidity: 83%
Barometer: 30.23 inHg , 1023.7 hPa
Clouds: Overcast
Visibility: 10 miles , 16 km
Cloud details: Mostly cloudy 2000 ft
Overcast 2400 ft
2018/09/21 10:53 KPOU 211053Z 18004KT 10SM BKN020 OVC024 18/15 A3023 RMK AO2 SLP233 T01830150
 
KORE - Orange, Massachusetts, USA
Distance from station: NNE 60mi, 97km
Updated: Fri, 21-Sep-2018 6:52am EDT
Overcast
Overcast
 Wind from SSE
Wind: SSE 6 mph , 9 km/h
Temperature: 61°F , 16°C
Dew Point: 54°F , 12°C
Humidity: 77%
Barometer: 30.29 inHg , 1025.7 hPa
Clouds: Overcast
Visibility: 10 miles , 16 km
Cloud details: Overcast 2300 ft
2018/09/21 10:52 KORE 211052Z AUTO 16005KT 10SM OVC023 16/12 A3029 RMK AO2 SLP256 T01560122 $
KHTO - East Hampton, New York, USA
Distance from station: SSE 62mi, 99km
Updated: Fri, 21-Sep-2018 7:35am EDT
Partly cloudy
Partly cloudy
 Wind from SE
Wind: SE 5 mph , 7 km/h
Temperature: 64°F , 18°C
Dew Point: 57°F , 14°C
Humidity: 78%
Barometer: 30.29 inHg , 1025.7 hPa
Clouds: Partly cloudy
Visibility: 10 miles , 16 km
Cloud details: Partly cloudy 6000 ft
2018/09/21 11:35 KHTO 211135Z AUTO 13004KT 10SM SCT060 18/14 A3029 RMK AO2 T01750135
 
KFOK - Westhampton Beac, New York, USA
Distance from station: S 63mi, 102km
Updated: Fri, 21-Sep-2018 6:53am EDT
Overcast
Overcast
 Wind from SE
Wind: SE 5 mph , 7 km/h
Temperature: 64°F , 18°C
Dew Point: 57°F , 14°C
Humidity: 78%
Barometer: 30.30 inHg , 1026.1 hPa
Clouds: Overcast
Visibility: 10 miles , 16 km
Cloud details: Overcast 6000 ft
2018/09/21 10:53 KFOK 211053Z AUTO 14004KT 10SM OVC060 18/14 A3030 RMK AO2 SLP261 T01780139
KMTP - Montauk, New York, USA
Distance from station: SE 64mi, 104km
Updated: Fri, 21-Sep-2018 6:54am EDT

 Wind from ESE
Wind: ESE 3 mph , 6 km/h
Temperature: 61°F , 16°C
Dew Point: 57°F , 14°C
Humidity: 88%
Barometer: 30.31 inHg , 1026.4 hPa
2018/09/21 10:54 KMTP 211054Z AUTO 11003KT 16/14 A3031 RMK AO1 SLP263 T01610139